sensor_id;sensor_type;location;lat;lon;timestamp;P1;durP1;ratioP1;P2;durP2;ratioP2
21128;SDS011;10722;51.910;8.352;2022-11-14T00:02:24;55.77;;;29.40;;
21128;SDS011;10722;51.910;8.352;2022-11-14T00:05:09;57.93;;;29.87;;
21128;SDS011;10722;51.910;8.352;2022-11-14T00:07:54;61.03;;;30.37;;
21128;SDS011;10722;51.910;8.352;2022-11-14T00:10:39;58.23;;;30.87;;
21128;SDS011;10722;51.910;8.352;2022-11-14T00:13:25;55.70;;;29.77;;
21128;SDS011;10722;51.910;8.352;2022-11-14T00:16:10;54.10;;;28.87;;
21128;SDS011;10722;51.910;8.352;2022-11-14T00:18:54;54.60;;;29.73;;
21128;SDS011;10722;51.910;8.352;2022-11-14T00:21:39;52.10;;;28.73;;
21128;SDS011;10722;51.910;8.352;2022-11-14T00:24:25;51.50;;;28.13;;
21128;SDS011;10722;51.910;8.352;2022-11-14T00:27:10;56.13;;;30.73;;
21128;SDS011;10722;51.910;8.352;2022-11-14T00:29:55;57.33;;;28.80;;
21128;SDS011;10722;51.910;8.352;2022-11-14T00:32:40;50.90;;;28.00;;
21128;SDS011;10722;51.910;8.352;2022-11-14T00:35:25;49.03;;;27.77;;
21128;SDS011;10722;51.910;8.352;2022-11-14T00:38:10;49.13;;;27.23;;
21128;SDS011;10722;51.910;8.352;2022-11-14T00:40:55;54.40;;;27.27;;
21128;SDS011;10722;51.910;8.352;2022-11-14T00:43:40;45.40;;;25.40;;
21128;SDS011;10722;51.910;8.352;2022-11-14T00:46:25;44.30;;;25.37;;
21128;SDS011;10722;51.910;8.352;2022-11-14T00:49:10;44.53;;;24.83;;
21128;SDS011;10722;51.910;8.352;2022-11-14T00:51:55;44.60;;;24.60;;
21128;SDS011;10722;51.910;8.352;2022-11-14T00:54:40;46.40;;;25.03;;
21128;SDS011;10722;51.910;8.352;2022-11-14T00:57:26;43.33;;;24.80;;
21128;SDS011;10722;51.910;8.352;2022-11-14T01:00:11;44.60;;;24.87;;
21128;SDS011;10722;51.910;8.352;2022-11-14T01:02:57;42.23;;;25.03;;
21128;SDS011;10722;51.910;8.352;2022-11-14T01:05:43;45.63;;;25.47;;
21128;SDS011;10722;51.910;8.352;2022-11-14T01:08:30;45.40;;;24.67;;
21128;SDS011;10722;51.910;8.352;2022-11-14T01:11:16;40.07;;;23.03;;
21128;SDS011;10722;51.910;8.352;2022-11-14T01:14:07;44.63;;;25.00;;
21128;SDS011;10722;51.910;8.352;2022-11-14T01:16:53;42.27;;;23.63;;
21128;SDS011;10722;51.910;8.352;2022-11-14T01:19:38;45.63;;;25.37;;
21128;SDS011;10722;51.910;8.352;2022-11-14T01:22:24;45.17;;;25.30;;
21128;SDS011;10722;51.910;8.352;2022-11-14T01:25:09;43.40;;;24.30;;
21128;SDS011;10722;51.910;8.352;2022-11-14T01:27:55;45.63;;;25.97;;
21128;SDS011;10722;51.910;8.352;2022-11-14T01:30:40;41.67;;;23.40;;
21128;SDS011;10722;51.910;8.352;2022-11-14T01:33:26;43.77;;;24.57;;
21128;SDS011;10722;51.910;8.352;2022-11-14T01:36:11;42.03;;;23.67;;
21128;SDS011;10722;51.910;8.352;2022-11-14T01:38:56;41.63;;;23.27;;
21128;SDS011;10722;51.910;8.352;2022-11-14T01:41:41;42.27;;;24.20;;
21128;SDS011;10722;51.910;8.352;2022-11-14T01:44:37;42.33;;;23.53;;
21128;SDS011;10722;51.910;8.352;2022-11-14T01:47:33;41.67;;;24.50;;
21128;SDS011;10722;51.910;8.352;2022-11-14T01:50:19;42.90;;;24.60;;
21128;SDS011;10722;51.910;8.352;2022-11-14T01:53:04;42.13;;;24.10;;
21128;SDS011;10722;51.910;8.352;2022-11-14T01:55:49;43.33;;;25.00;;
21128;SDS011;10722;51.910;8.352;2022-11-14T01:58:38;42.63;;;24.53;;
21128;SDS011;10722;51.910;8.352;2022-11-14T02:01:28;44.60;;;25.80;;
21128;SDS011;10722;51.910;8.352;2022-11-14T02:04:23;45.07;;;27.40;;
21128;SDS011;10722;51.910;8.352;2022-11-14T02:07:12;43.53;;;24.90;;
21128;SDS011;10722;51.910;8.352;2022-11-14T02:09:58;49.77;;;27.80;;
21128;SDS011;10722;51.910;8.352;2022-11-14T02:12:50;45.97;;;25.83;;
21128;SDS011;10722;51.910;8.352;2022-11-14T02:15:37;42.50;;;25.20;;
21128;SDS011;10722;51.910;8.352;2022-11-14T02:18:22;46.90;;;26.20;;
21128;SDS011;10722;51.910;8.352;2022-11-14T02:21:07;41.07;;;24.57;;
21128;SDS011;10722;51.910;8.352;2022-11-14T02:23:52;45.63;;;25.80;;
21128;SDS011;10722;51.910;8.352;2022-11-14T02:26:38;43.90;;;25.53;;
21128;SDS011;10722;51.910;8.352;2022-11-14T02:29:25;42.13;;;24.20;;
21128;SDS011;10722;51.910;8.352;2022-11-14T02:32:10;43.33;;;25.33;;
21128;SDS011;10722;51.910;8.352;2022-11-14T02:34:55;43.20;;;24.43;;
21128;SDS011;10722;51.910;8.352;2022-11-14T02:37:40;42.57;;;23.57;;
21128;SDS011;10722;51.910;8.352;2022-11-14T02:40:25;42.53;;;25.30;;
21128;SDS011;10722;51.910;8.352;2022-11-14T02:43:11;41.80;;;24.97;;
21128;SDS011;10722;51.910;8.352;2022-11-14T02:45:56;44.23;;;24.97;;
21128;SDS011;10722;51.910;8.352;2022-11-14T02:48:49;42.13;;;25.73;;
21128;SDS011;10722;51.910;8.352;2022-11-14T02:51:34;41.97;;;24.40;;
21128;SDS011;10722;51.910;8.352;2022-11-14T02:54:20;45.10;;;26.77;;
21128;SDS011;10722;51.910;8.352;2022-11-14T02:57:05;43.77;;;25.47;;
21128;SDS011;10722;51.910;8.352;2022-11-14T02:59:50;42.90;;;24.77;;
21128;SDS011;10722;51.910;8.352;2022-11-14T03:02:35;40.73;;;23.80;;
21128;SDS011;10722;51.910;8.352;2022-11-14T03:05:20;42.57;;;24.10;;
21128;SDS011;10722;51.910;8.352;2022-11-14T03:08:05;44.90;;;25.93;;
21128;SDS011;10722;51.910;8.352;2022-11-14T03:10:50;43.03;;;25.33;;
21128;SDS011;10722;51.910;8.352;2022-11-14T03:13:35;44.20;;;25.40;;
21128;SDS011;10722;51.910;8.352;2022-11-14T03:16:21;39.33;;;22.40;;
21128;SDS011;10722;51.910;8.352;2022-11-14T03:19:05;42.83;;;23.57;;
21128;SDS011;10722;51.910;8.352;2022-11-14T03:21:50;39.50;;;22.90;;
21128;SDS011;10722;51.910;8.352;2022-11-14T03:24:36;40.87;;;22.43;;
21128;SDS011;10722;51.910;8.352;2022-11-14T03:27:21;41.73;;;22.43;;
21128;SDS011;10722;51.910;8.352;2022-11-14T03:30:06;43.90;;;22.97;;
21128;SDS011;10722;51.910;8.352;2022-11-14T03:32:52;39.60;;;21.70;;
21128;SDS011;10722;51.910;8.352;2022-11-14T03:35:42;40.40;;;21.83;;
21128;SDS011;10722;51.910;8.352;2022-11-14T03:38:27;37.60;;;21.10;;
21128;SDS011;10722;51.910;8.352;2022-11-14T03:41:13;40.00;;;21.80;;
21128;SDS011;10722;51.910;8.352;2022-11-14T03:43:58;34.90;;;19.57;;
21128;SDS011;10722;51.910;8.352;2022-11-14T03:46:44;38.00;;;20.43;;
21128;SDS011;10722;51.910;8.352;2022-11-14T03:49:29;37.60;;;20.87;;
21128;SDS011;10722;51.910;8.352;2022-11-14T03:52:14;40.27;;;21.17;;
21128;SDS011;10722;51.910;8.352;2022-11-14T03:55:00;36.03;;;20.37;;
21128;SDS011;10722;51.910;8.352;2022-11-14T03:57:45;36.07;;;19.67;;
21128;SDS011;10722;51.910;8.352;2022-11-14T04:00:30;35.13;;;20.00;;
21128;SDS011;10722;51.910;8.352;2022-11-14T04:03:16;33.83;;;18.83;;
21128;SDS011;10722;51.910;8.352;2022-11-14T04:06:01;35.10;;;19.23;;
21128;SDS011;10722;51.910;8.352;2022-11-14T04:08:46;37.23;;;19.83;;
21128;SDS011;10722;51.910;8.352;2022-11-14T04:11:31;34.23;;;18.73;;
21128;SDS011;10722;51.910;8.352;2022-11-14T04:14:17;32.37;;;18.27;;
21128;SDS011;10722;51.910;8.352;2022-11-14T04:17:02;33.23;;;18.57;;
21128;SDS011;10722;51.910;8.352;2022-11-14T04:19:47;34.17;;;18.57;;
21128;SDS011;10722;51.910;8.352;2022-11-14T04:22:32;33.87;;;19.17;;
21128;SDS011;10722;51.910;8.352;2022-11-14T04:25:17;35.57;;;19.37;;
21128;SDS011;10722;51.910;8.352;2022-11-14T04:28:02;37.47;;;20.37;;
21128;SDS011;10722;51.910;8.352;2022-11-14T04:30:48;33.70;;;19.60;;
21128;SDS011;10722;51.910;8.352;2022-11-14T04:33:33;35.43;;;19.43;;
21128;SDS011;10722;51.910;8.352;2022-11-14T04:36:18;33.47;;;19.43;;
21128;SDS011;10722;51.910;8.352;2022-11-14T04:39:03;36.50;;;20.10;;
21128;SDS011;10722;51.910;8.352;2022-11-14T04:41:48;34.70;;;20.03;;
21128;SDS011;10722;51.910;8.352;2022-11-14T04:44:33;36.33;;;20.73;;
21128;SDS011;10722;51.910;8.352;2022-11-14T04:47:19;34.90;;;19.90;;
21128;SDS011;10722;51.910;8.352;2022-11-14T04:50:04;33.03;;;18.90;;
21128;SDS011;10722;51.910;8.352;2022-11-14T04:52:50;35.13;;;19.77;;
21128;SDS011;10722;51.910;8.352;2022-11-14T04:55:36;35.20;;;20.03;;
21128;SDS011;10722;51.910;8.352;2022-11-14T04:58:21;31.93;;;18.33;;
21128;SDS011;10722;51.910;8.352;2022-11-14T05:01:10;31.83;;;18.53;;
21128;SDS011;10722;51.910;8.352;2022-11-14T05:03:57;32.93;;;18.77;;
21128;SDS011;10722;51.910;8.352;2022-11-14T05:06:42;32.63;;;18.27;;
21128;SDS011;10722;51.910;8.352;2022-11-14T05:09:27;30.87;;;17.80;;
21128;SDS011;10722;51.910;8.352;2022-11-14T05:12:13;32.30;;;18.50;;
21128;SDS011;10722;51.910;8.352;2022-11-14T05:14:57;35.73;;;18.80;;
21128;SDS011;10722;51.910;8.352;2022-11-14T05:17:43;34.73;;;18.57;;
21128;SDS011;10722;51.910;8.352;2022-11-14T05:20:28;32.37;;;17.67;;
21128;SDS011;10722;51.910;8.352;2022-11-14T05:23:20;32.67;;;18.50;;
21128;SDS011;10722;51.910;8.352;2022-11-14T05:26:07;32.23;;;17.93;;
21128;SDS011;10722;51.910;8.352;2022-11-14T05:28:54;32.67;;;19.17;;
21128;SDS011;10722;51.910;8.352;2022-11-14T05:31:39;33.30;;;18.73;;
21128;SDS011;10722;51.910;8.352;2022-11-14T05:34:24;31.43;;;18.03;;
21128;SDS011;10722;51.910;8.352;2022-11-14T05:37:10;33.53;;;18.90;;
21128;SDS011;10722;51.910;8.352;2022-11-14T05:39:54;33.43;;;18.63;;
21128;SDS011;10722;51.910;8.352;2022-11-14T05:42:40;33.67;;;19.47;;
21128;SDS011;10722;51.910;8.352;2022-11-14T05:45:25;34.23;;;18.77;;
21128;SDS011;10722;51.910;8.352;2022-11-14T05:48:10;33.50;;;18.60;;
21128;SDS011;10722;51.910;8.352;2022-11-14T05:50:56;34.50;;;20.27;;
21128;SDS011;10722;51.910;8.352;2022-11-14T05:53:43;33.23;;;19.10;;
21128;SDS011;10722;51.910;8.352;2022-11-14T05:56:28;33.73;;;19.50;;
21128;SDS011;10722;51.910;8.352;2022-11-14T05:59:12;34.20;;;19.77;;
21128;SDS011;10722;51.910;8.352;2022-11-14T06:01:58;33.30;;;19.67;;
21128;SDS011;10722;51.910;8.352;2022-11-14T06:04:43;34.90;;;20.40;;
21128;SDS011;10722;51.910;8.352;2022-11-14T06:07:28;35.63;;;19.27;;
21128;SDS011;10722;51.910;8.352;2022-11-14T06:10:14;37.13;;;20.73;;
21128;SDS011;10722;51.910;8.352;2022-11-14T06:12:59;33.27;;;19.50;;
21128;SDS011;10722;51.910;8.352;2022-11-14T06:15:44;35.47;;;19.80;;
21128;SDS011;10722;51.910;8.352;2022-11-14T06:18:30;35.83;;;19.77;;
21128;SDS011;10722;51.910;8.352;2022-11-14T06:21:20;35.00;;;20.03;;
21128;SDS011;10722;51.910;8.352;2022-11-14T06:24:06;35.63;;;21.00;;
21128;SDS011;10722;51.910;8.352;2022-11-14T06:26:51;35.73;;;19.37;;
21128;SDS011;10722;51.910;8.352;2022-11-14T06:29:37;36.00;;;20.80;;
21128;SDS011;10722;51.910;8.352;2022-11-14T06:32:22;36.57;;;21.33;;
21128;SDS011;10722;51.910;8.352;2022-11-14T06:35:07;39.90;;;20.80;;
21128;SDS011;10722;51.910;8.352;2022-11-14T06:37:53;36.77;;;20.87;;
21128;SDS011;10722;51.910;8.352;2022-11-14T06:40:38;37.53;;;20.47;;
21128;SDS011;10722;51.910;8.352;2022-11-14T06:43:23;37.87;;;21.60;;
21128;SDS011;10722;51.910;8.352;2022-11-14T06:46:09;36.17;;;21.20;;
21128;SDS011;10722;51.910;8.352;2022-11-14T06:48:56;36.80;;;21.10;;
21128;SDS011;10722;51.910;8.352;2022-11-14T06:51:42;36.63;;;21.13;;
21128;SDS011;10722;51.910;8.352;2022-11-14T06:54:27;39.13;;;21.47;;
21128;SDS011;10722;51.910;8.352;2022-11-14T06:57:12;39.47;;;22.43;;
21128;SDS011;10722;51.910;8.352;2022-11-14T06:59:57;40.30;;;22.27;;
21128;SDS011;10722;51.910;8.352;2022-11-14T07:02:46;42.77;;;24.13;;
21128;SDS011;10722;51.910;8.352;2022-11-14T07:05:31;41.07;;;22.73;;
21128;SDS011;10722;51.910;8.352;2022-11-14T07:08:16;38.40;;;22.30;;
21128;SDS011;10722;51.910;8.352;2022-11-14T07:11:06;39.17;;;21.47;;
21128;SDS011;10722;51.910;8.352;2022-11-14T07:13:57;38.03;;;21.97;;
21128;SDS011;10722;51.910;8.352;2022-11-14T07:16:43;34.97;;;20.50;;
21128;SDS011;10722;51.910;8.352;2022-11-14T07:19:28;34.13;;;20.27;;
21128;SDS011;10722;51.910;8.352;2022-11-14T07:22:13;38.77;;;21.67;;
21128;SDS011;10722;51.910;8.352;2022-11-14T07:24:59;36.00;;;20.60;;
21128;SDS011;10722;51.910;8.352;2022-11-14T07:27:44;34.27;;;20.30;;
21128;SDS011;10722;51.910;8.352;2022-11-14T07:30:29;35.33;;;21.17;;
21128;SDS011;10722;51.910;8.352;2022-11-14T07:33:15;34.87;;;20.60;;
21128;SDS011;10722;51.910;8.352;2022-11-14T07:36:00;39.23;;;23.67;;
21128;SDS011;10722;51.910;8.352;2022-11-14T07:38:46;34.67;;;20.43;;
21128;SDS011;10722;51.910;8.352;2022-11-14T07:41:31;33.97;;;20.53;;
21128;SDS011;10722;51.910;8.352;2022-11-14T07:44:39;35.40;;;21.50;;
21128;SDS011;10722;51.910;8.352;2022-11-14T07:48:08;35.47;;;21.03;;
21128;SDS011;10722;51.910;8.352;2022-11-14T07:51:07;39.47;;;21.57;;
21128;SDS011;10722;51.910;8.352;2022-11-14T07:53:54;36.67;;;21.00;;
21128;SDS011;10722;51.910;8.352;2022-11-14T07:56:39;36.00;;;20.37;;
21128;SDS011;10722;51.910;8.352;2022-11-14T07:59:24;33.90;;;20.43;;
21128;SDS011;10722;51.910;8.352;2022-11-14T08:02:13;35.17;;;20.43;;
21128;SDS011;10722;51.910;8.352;2022-11-14T08:04:59;36.20;;;20.03;;
21128;SDS011;10722;51.910;8.352;2022-11-14T08:07:44;35.03;;;19.77;;
21128;SDS011;10722;51.910;8.352;2022-11-14T08:10:29;33.73;;;19.13;;
21128;SDS011;10722;51.910;8.352;2022-11-14T08:13:17;33.03;;;19.70;;
21128;SDS011;10722;51.910;8.352;2022-11-14T08:16:17;32.13;;;19.73;;
21128;SDS011;10722;51.910;8.352;2022-11-14T08:19:02;31.93;;;19.37;;
21128;SDS011;10722;51.910;8.352;2022-11-14T08:21:47;32.23;;;19.30;;
21128;SDS011;10722;51.910;8.352;2022-11-14T08:24:32;31.17;;;17.63;;
21128;SDS011;10722;51.910;8.352;2022-11-14T08:27:17;31.40;;;18.57;;
21128;SDS011;10722;51.910;8.352;2022-11-14T08:30:03;30.37;;;18.20;;
21128;SDS011;10722;51.910;8.352;2022-11-14T08:32:48;28.90;;;17.23;;
21128;SDS011;10722;51.910;8.352;2022-11-14T08:35:34;28.33;;;17.37;;
21128;SDS011;10722;51.910;8.352;2022-11-14T08:38:19;30.10;;;18.43;;
21128;SDS011;10722;51.910;8.352;2022-11-14T08:41:05;30.67;;;18.37;;
21128;SDS011;10722;51.910;8.352;2022-11-14T08:43:50;29.27;;;18.00;;
21128;SDS011;10722;51.910;8.352;2022-11-14T08:46:35;28.97;;;17.67;;
21128;SDS011;10722;51.910;8.352;2022-11-14T08:49:20;30.13;;;17.87;;
21128;SDS011;10722;51.910;8.352;2022-11-14T08:52:06;31.87;;;18.00;;
21128;SDS011;10722;51.910;8.352;2022-11-14T08:54:56;29.27;;;18.37;;
21128;SDS011;10722;51.910;8.352;2022-11-14T08:57:41;29.23;;;17.57;;
21128;SDS011;10722;51.910;8.352;2022-11-14T09:00:33;30.03;;;17.87;;
21128;SDS011;10722;51.910;8.352;2022-11-14T09:03:18;28.90;;;17.93;;
21128;SDS011;10722;51.910;8.352;2022-11-14T09:06:04;27.73;;;16.60;;
21128;SDS011;10722;51.910;8.352;2022-11-14T09:08:50;28.73;;;16.83;;
21128;SDS011;10722;51.910;8.352;2022-11-14T09:11:35;28.87;;;17.57;;
21128;SDS011;10722;51.910;8.352;2022-11-14T09:14:20;27.20;;;16.33;;
21128;SDS011;10722;51.910;8.352;2022-11-14T09:17:06;29.77;;;16.90;;
21128;SDS011;10722;51.910;8.352;2022-11-14T09:19:54;35.30;;;22.10;;
21128;SDS011;10722;51.910;8.352;2022-11-14T09:22:45;32.23;;;19.70;;
21128;SDS011;10722;51.910;8.352;2022-11-14T09:25:31;27.87;;;16.67;;
21128;SDS011;10722;51.910;8.352;2022-11-14T09:28:16;33.97;;;17.57;;
21128;SDS011;10722;51.910;8.352;2022-11-14T09:31:07;28.60;;;17.23;;
21128;SDS011;10722;51.910;8.352;2022-11-14T09:33:56;27.93;;;16.17;;
21128;SDS011;10722;51.910;8.352;2022-11-14T09:36:41;28.47;;;16.63;;
21128;SDS011;10722;51.910;8.352;2022-11-14T09:39:27;26.93;;;16.53;;
21128;SDS011;10722;51.910;8.352;2022-11-14T09:42:20;27.63;;;16.27;;
21128;SDS011;10722;51.910;8.352;2022-11-14T09:45:18;26.73;;;15.83;;
21128;SDS011;10722;51.910;8.352;2022-11-14T09:48:05;27.30;;;16.43;;
21128;SDS011;10722;51.910;8.352;2022-11-14T09:51:06;26.93;;;15.93;;
21128;SDS011;10722;51.910;8.352;2022-11-14T09:53:59;28.93;;;17.70;;
21128;SDS011;10722;51.910;8.352;2022-11-14T09:57:02;27.60;;;16.63;;
21128;SDS011;10722;51.910;8.352;2022-11-14T09:59:47;28.87;;;16.73;;
21128;SDS011;10722;51.910;8.352;2022-11-14T10:02:37;28.53;;;17.00;;
21128;SDS011;10722;51.910;8.352;2022-11-14T10:09:08;28.03;;;17.30;;
21128;SDS011;10722;51.910;8.352;2022-11-14T10:20:57;26.87;;;15.60;;
21128;SDS011;10722;51.910;8.352;2022-11-14T10:26:58;27.40;;;16.30;;
21128;SDS011;10722;51.910;8.352;2022-11-14T10:35:45;27.23;;;15.60;;
21128;SDS011;10722;51.910;8.352;2022-11-14T10:41:29;30.83;;;18.27;;
21128;SDS011;10722;51.910;8.352;2022-11-14T10:44:36;26.97;;;16.43;;
21128;SDS011;10722;51.910;8.352;2022-11-14T10:47:29;26.70;;;16.10;;
21128;SDS011;10722;51.910;8.352;2022-11-14T10:50:26;26.73;;;15.47;;
21128;SDS011;10722;51.910;8.352;2022-11-14T10:53:24;26.10;;;15.93;;
21128;SDS011;10722;51.910;8.352;2022-11-14T10:56:17;25.02;;;15.50;;
21128;SDS011;10722;51.910;8.352;2022-11-14T10:59:02;23.30;;;14.50;;
21128;SDS011;10722;51.910;8.352;2022-11-14T11:04:37;24.42;;;14.98;;
21128;SDS011;10722;51.910;8.352;2022-11-14T11:07:27;26.17;;;15.02;;
21128;SDS011;10722;51.910;8.352;2022-11-14T11:10:31;24.85;;;15.40;;
21128;SDS011;10722;51.910;8.352;2022-11-14T11:16:36;25.33;;;15.63;;
21128;SDS011;10722;51.910;8.352;2022-11-14T11:19:23;28.42;;;15.35;;
21128;SDS011;10722;51.910;8.352;2022-11-14T11:22:30;24.10;;;15.50;;
21128;SDS011;10722;51.910;8.352;2022-11-14T11:25:25;25.17;;;15.67;;
21128;SDS011;10722;51.910;8.352;2022-11-14T11:28:17;25.88;;;15.40;;
21128;SDS011;10722;51.910;8.352;2022-11-14T11:31:04;24.02;;;14.52;;
21128;SDS011;10722;51.910;8.352;2022-11-14T11:33:51;23.45;;;14.88;;
21128;SDS011;10722;51.910;8.352;2022-11-14T11:37:02;23.33;;;14.52;;
21128;SDS011;10722;51.910;8.352;2022-11-14T11:40:11;22.67;;;14.45;;
21128;SDS011;10722;51.910;8.352;2022-11-14T11:43:08;22.38;;;14.40;;
21128;SDS011;10722;51.910;8.352;2022-11-14T11:55:45;25.30;;;15.10;;
21128;SDS011;10722;51.910;8.352;2022-11-14T11:58:41;24.95;;;15.30;;
21128;SDS011;10722;51.910;8.352;2022-11-14T12:01:30;23.55;;;14.75;;
21128;SDS011;10722;51.910;8.352;2022-11-14T12:04:15;23.73;;;14.05;;
21128;SDS011;10722;51.910;8.352;2022-11-14T12:07:08;22.73;;;14.55;;
21128;SDS011;10722;51.910;8.352;2022-11-14T12:13:49;22.92;;;14.50;;
21128;SDS011;10722;51.910;8.352;2022-11-14T12:20:01;23.05;;;14.77;;
21128;SDS011;10722;51.910;8.352;2022-11-14T12:32:45;24.50;;;14.18;;
21128;SDS011;10722;51.910;8.352;2022-11-14T12:35:56;23.73;;;14.73;;
21128;SDS011;10722;51.910;8.352;2022-11-14T12:38:47;23.05;;;13.60;;
21128;SDS011;10722;51.910;8.352;2022-11-14T12:41:36;22.20;;;14.05;;
21128;SDS011;10722;51.910;8.352;2022-11-14T12:47:17;24.25;;;13.95;;
21128;SDS011;10722;51.910;8.352;2022-11-14T12:50:04;23.88;;;14.63;;
21128;SDS011;10722;51.910;8.352;2022-11-14T13:12:29;31.45;;;18.98;;
21128;SDS011;10722;51.910;8.352;2022-11-14T13:18:11;20.42;;;11.68;;
21128;SDS011;10722;51.910;8.352;2022-11-14T13:21:00;20.13;;;11.40;;
21128;SDS011;10722;51.910;8.352;2022-11-14T13:26:37;22.73;;;12.05;;
21128;SDS011;10722;51.910;8.352;2022-11-14T13:35:33;20.00;;;11.48;;
21128;SDS011;10722;51.910;8.352;2022-11-14T13:41:29;22.08;;;11.55;;
21128;SDS011;10722;51.910;8.352;2022-11-14T13:47:42;20.58;;;11.57;;
21128;SDS011;10722;51.910;8.352;2022-11-14T13:50:50;18.38;;;10.93;;
21128;SDS011;10722;51.910;8.352;2022-11-14T13:53:39;20.48;;;11.70;;
21128;SDS011;10722;51.910;8.352;2022-11-14T13:56:37;21.85;;;11.80;;
21128;SDS011;10722;51.910;8.352;2022-11-14T13:59:37;19.23;;;9.95;;
21128;SDS011;10722;51.910;8.352;2022-11-14T14:08:47;21.13;;;12.07;;
21128;SDS011;10722;51.910;8.352;2022-11-14T14:14:40;21.00;;;12.57;;
21128;SDS011;10722;51.910;8.352;2022-11-14T14:20:35;20.27;;;12.40;;
21128;SDS011;10722;51.910;8.352;2022-11-14T14:23:30;19.67;;;11.82;;
21128;SDS011;10722;51.910;8.352;2022-11-14T14:29:57;20.27;;;12.05;;
21128;SDS011;10722;51.910;8.352;2022-11-14T14:33:01;22.73;;;12.45;;
21128;SDS011;10722;51.910;8.352;2022-11-14T14:35:48;19.55;;;11.75;;
21128;SDS011;10722;51.910;8.352;2022-11-14T14:38:35;21.15;;;12.38;;
21128;SDS011;10722;51.910;8.352;2022-11-14T14:41:20;22.73;;;12.38;;
21128;SDS011;10722;51.910;8.352;2022-11-14T14:44:23;23.15;;;12.60;;
21128;SDS011;10722;51.910;8.352;2022-11-14T14:51:09;20.05;;;11.38;;
21128;SDS011;10722;51.910;8.352;2022-11-14T14:53:38;21.25;;;12.23;;
21128;SDS011;10722;51.910;8.352;2022-11-14T14:56:35;20.25;;;12.23;;
21128;SDS011;10722;51.910;8.352;2022-11-14T14:59:21;20.13;;;12.02;;
21128;SDS011;10722;51.910;8.352;2022-11-14T15:02:15;20.90;;;12.32;;
21128;SDS011;10722;51.910;8.352;2022-11-14T15:05:04;22.60;;;12.38;;
21128;SDS011;10722;51.910;8.352;2022-11-14T15:07:55;22.67;;;12.85;;
21128;SDS011;10722;51.910;8.352;2022-11-14T15:10:42;23.05;;;14.07;;
21128;SDS011;10722;51.910;8.352;2022-11-14T15:13:28;24.73;;;13.63;;
21128;SDS011;10722;51.910;8.352;2022-11-14T15:16:14;26.35;;;13.07;;
21128;SDS011;10722;51.910;8.352;2022-11-14T15:19:00;23.42;;;13.13;;
21128;SDS011;10722;51.910;8.352;2022-11-14T15:25:05;21.42;;;12.90;;
21128;SDS011;10722;51.910;8.352;2022-11-14T15:28:02;22.10;;;12.02;;
21128;SDS011;10722;51.910;8.352;2022-11-14T15:30:55;21.60;;;12.63;;
21128;SDS011;10722;51.910;8.352;2022-11-14T15:33:43;23.50;;;12.77;;
21128;SDS011;10722;51.910;8.352;2022-11-14T15:36:31;21.63;;;11.95;;
21128;SDS011;10722;51.910;8.352;2022-11-14T15:39:21;25.58;;;13.52;;
21128;SDS011;10722;51.910;8.352;2022-11-14T15:44:59;21.60;;;12.32;;
21128;SDS011;10722;51.910;8.352;2022-11-14T15:47:45;22.13;;;11.75;;
21128;SDS011;10722;51.910;8.352;2022-11-14T15:50:33;25.57;;;12.37;;
21128;SDS011;10722;51.910;8.352;2022-11-14T15:56:07;20.83;;;12.00;;
21128;SDS011;10722;51.910;8.352;2022-11-14T15:58:55;21.17;;;11.80;;
21128;SDS011;10722;51.910;8.352;2022-11-14T16:01:40;26.50;;;12.20;;
21128;SDS011;10722;51.910;8.352;2022-11-14T16:04:31;22.13;;;11.77;;
21128;SDS011;10722;51.910;8.352;2022-11-14T16:07:18;22.20;;;12.82;;
21128;SDS011;10722;51.910;8.352;2022-11-14T16:10:14;28.33;;;15.38;;
21128;SDS011;10722;51.910;8.352;2022-11-14T16:13:02;25.20;;;15.20;;
21128;SDS011;10722;51.910;8.352;2022-11-14T16:15:47;24.83;;;14.90;;
21128;SDS011;10722;51.910;8.352;2022-11-14T16:18:33;26.85;;;14.20;;
21128;SDS011;10722;51.910;8.352;2022-11-14T16:21:18;26.83;;;16.37;;
21128;SDS011;10722;51.910;8.352;2022-11-14T16:24:04;29.10;;;15.80;;
21128;SDS011;10722;51.910;8.352;2022-11-14T16:26:50;25.67;;;15.60;;
21128;SDS011;10722;51.910;8.352;2022-11-14T16:29:35;26.60;;;15.30;;
21128;SDS011;10722;51.910;8.352;2022-11-14T16:32:21;25.60;;;15.02;;
21128;SDS011;10722;51.910;8.352;2022-11-14T16:35:09;26.60;;;16.40;;
21128;SDS011;10722;51.910;8.352;2022-11-14T16:37:56;26.73;;;15.83;;
21128;SDS011;10722;51.910;8.352;2022-11-14T16:40:43;26.07;;;15.57;;
21128;SDS011;10722;51.910;8.352;2022-11-14T16:43:28;24.77;;;13.93;;
21128;SDS011;10722;51.910;8.352;2022-11-14T16:46:14;30.77;;;17.73;;
21128;SDS011;10722;51.910;8.352;2022-11-14T16:48:59;27.27;;;16.47;;
21128;SDS011;10722;51.910;8.352;2022-11-14T16:51:46;34.67;;;19.87;;
21128;SDS011;10722;51.910;8.352;2022-11-14T16:54:34;33.13;;;20.17;;
21128;SDS011;10722;51.910;8.352;2022-11-14T16:57:19;28.20;;;16.93;;
21128;SDS011;10722;51.910;8.352;2022-11-14T17:00:06;26.90;;;16.50;;
21128;SDS011;10722;51.910;8.352;2022-11-14T17:02:53;33.53;;;19.90;;
21128;SDS011;10722;51.910;8.352;2022-11-14T17:05:45;30.42;;;18.15;;
21128;SDS011;10722;51.910;8.352;2022-11-14T17:08:35;31.43;;;18.13;;
21128;SDS011;10722;51.910;8.352;2022-11-14T17:11:20;43.30;;;28.10;;
21128;SDS011;10722;51.910;8.352;2022-11-14T17:14:06;45.57;;;28.53;;
21128;SDS011;10722;51.910;8.352;2022-11-14T17:16:51;41.27;;;26.97;;
21128;SDS011;10722;51.910;8.352;2022-11-14T17:19:36;40.43;;;25.50;;
21128;SDS011;10722;51.910;8.352;2022-11-14T17:22:22;39.10;;;25.07;;
21128;SDS011;10722;51.910;8.352;2022-11-14T17:25:07;37.20;;;24.00;;
21128;SDS011;10722;51.910;8.352;2022-11-14T17:27:52;34.92;;;21.77;;
21128;SDS011;10722;51.910;8.352;2022-11-14T17:30:41;39.60;;;25.63;;
21128;SDS011;10722;51.910;8.352;2022-11-14T17:33:26;35.73;;;22.00;;
21128;SDS011;10722;51.910;8.352;2022-11-14T17:36:12;32.87;;;21.37;;
21128;SDS011;10722;51.910;8.352;2022-11-14T17:38:57;30.20;;;19.13;;
21128;SDS011;10722;51.910;8.352;2022-11-14T17:41:42;31.45;;;20.52;;
21128;SDS011;10722;51.910;8.352;2022-11-14T17:44:27;33.47;;;19.27;;
21128;SDS011;10722;51.910;8.352;2022-11-14T17:47:13;28.42;;;17.88;;
21128;SDS011;10722;51.910;8.352;2022-11-14T17:49:58;30.03;;;16.67;;
21128;SDS011;10722;51.910;8.352;2022-11-14T17:52:43;28.33;;;17.20;;
21128;SDS011;10722;51.910;8.352;2022-11-14T17:55:28;29.77;;;17.00;;
21128;SDS011;10722;51.910;8.352;2022-11-14T17:58:14;27.52;;;15.93;;
21128;SDS011;10722;51.910;8.352;2022-11-14T18:00:59;25.03;;;16.03;;
21128;SDS011;10722;51.910;8.352;2022-11-14T18:03:44;26.23;;;16.70;;
21128;SDS011;10722;51.910;8.352;2022-11-14T18:06:29;27.33;;;17.17;;
21128;SDS011;10722;51.910;8.352;2022-11-14T18:09:15;29.67;;;17.73;;
21128;SDS011;10722;51.910;8.352;2022-11-14T18:12:00;30.23;;;17.93;;
21128;SDS011;10722;51.910;8.352;2022-11-14T18:14:45;29.33;;;18.33;;
21128;SDS011;10722;51.910;8.352;2022-11-14T18:17:30;29.73;;;19.30;;
21128;SDS011;10722;51.910;8.352;2022-11-14T18:20:15;32.33;;;20.20;;
21128;SDS011;10722;51.910;8.352;2022-11-14T18:23:00;31.73;;;21.37;;
21128;SDS011;10722;51.910;8.352;2022-11-14T18:25:45;41.97;;;24.23;;
21128;SDS011;10722;51.910;8.352;2022-11-14T18:28:30;31.93;;;19.87;;